EDJA 200050Z AUTO 15005KT 9999 // FEW120/// 16/12 Q1025 EDJA 200020Z AUTO 15003KT 120V180 9999 // FEW120/// 16/12 Q1025 EDJA 192350Z AUTO 12005KT 9999 // FEW078/// 15/12 Q1025 EDJA 192320Z AUTO 08004KT 050V110 9999 // BKN077/// BKN130/// 16/12 Q1025 EDJA 192250Z AUTO 04003KT 350V080 9999 // FEW100/// BKN130/// 16/13 Q1025 EDJA 192220Z AUTO 21005KT 9999 // SCT095/// BKN120/// 17/13 Q1025 EDJA 192150Z AUTO 21007KT 9999 // BKN095/// OVC120/// 17/13 Q1025 EDJA 192120Z AUTO 20008KT 9999 // BKN086/// 17/12 Q1025 EDJA 192050Z AUTO 20009KT 9999 // FEW088/// SCT130/// 17/12 Q1024 EDJA 192020Z 21007KT CAVOK 17/12 Q1024 EDJA 191950Z 18007KT CAVOK 18/12 Q1024 EDJA 191920Z 20006KT CAVOK 18/12 Q1024 EDJA 191850Z 23006KT CAVOK 19/12 Q1023 EDJA 191820Z 19007KT CAVOK 20/12 Q1023 EDJA 191750Z 22009KT CAVOK 21/11 Q1023 EDJA 191720Z 22012KT CAVOK 22/11 Q1023 EDJA 191650Z 23015KT CAVOK 24/13 Q1022 EDJA 191620Z 25012KT CAVOK 26/13 Q1022 EDJA 191550Z 26012KT CAVOK 26/12 Q1022 EDJA 191520Z 26013KT CAVOK 27/13 Q1022 EDJA 191450Z 25011KT 220V290 CAVOK 27/11 Q1022 EDJA 191420Z 27010KT CAVOK 27/13 Q1022 EDJA 191350Z 25008KT 220V290 CAVOK 27/13 Q1022 EDJA 191320Z 26008KT 210V300 CAVOK 27/13 Q1023 EDJA 191250Z 25009KT CAVOK 27/13 Q1023 EDJA 191220Z 27011KT 240V300 CAVOK 27/13 Q1023 EDJA 191150Z 27010KT 220V310 CAVOK 26/12 Q1023 EDJA 191120Z 25011KT 220V310 CAVOK 26/14 Q1023 EDJA 191050Z 26014KT 240V300 CAVOK 26/13 Q1023 EDJA 191020Z 23010KT 200V270 CAVOK 25/15 Q1023 EDJA 190950Z 23012KT CAVOK 25/15 Q1023 EDJA 190920Z 22009KT 200V260 CAVOK 24/14 Q1024 EDJA 190850Z 23011KT CAVOK 23/14 Q1024 EDJA 190820Z 23010KT CAVOK 22/14 Q1024 EDJA 190750Z 22007KT CAVOK 21/14 Q1024 EDJA 190720Z 23007KT CAVOK 20/13 Q1023 EDJA 190650Z 22005KT CAVOK 18/13 Q1023 EDJA 190620Z 22004KT CAVOK 16/12 Q1023 EDJA 190550Z 20002KT CAVOK 14/12 Q1023 EDJA 190520Z VRB01KT CAVOK 13/10 Q1023 EDJA 190450Z 18002KT CAVOK 10/09 Q1022 EDJA 190420Z 00000KT CAVOK 10/08 Q1022 EDJA 190350Z 00000KT CAVOK 09/08 Q1022 EDJA 190320Z AUTO VRB02KT 9999 // FEW220/// 09/08 Q1022 EDJA 190250Z AUTO VRB02KT 9999 // NCD 09/08 Q1022 EDJA 190220Z AUTO VRB01KT 9999 // NCD 09/08 Q1022 EDJA 190150Z AUTO VRB02KT 9999 // NCD 09/08 Q1022 EDJA 190120Z AUTO 07004KT 9999 // NCD 10/09 Q1022 EDJA 190050Z AUTO 03004KT 9999 // NCD 11/08 Q1022 EDJA 190020Z AUTO 03004KT 9999 // FEW160/// 12/09 Q1022 EDJA 182350Z AUTO VRB02KT 9999 // FEW160/// 12/09 Q1022 EDJA 182320Z AUTO 10006KT 9999 // FEW160/// 12/09 Q1023 EDJA 182250Z AUTO 09006KT 9999 // FEW150/// 13/09 Q1023 EDJA 182220Z AUTO 08004KT 050V110 9999 // FEW160/// 14/09 Q1023 EDJA 182150Z AUTO 10008KT 9999 // SCT160/// 16/09 Q1023 EDJA 182120Z AUTO 10008KT 9999 // FEW160/// 15/10 Q1023 EDJA 182050Z AUTO 09007KT 9999 // FEW160/// 16/10 Q1023 EDJA 182020Z AUTO 08007KT 9999 // FEW220/// 16/10 Q1023 EDJA 181950Z 08008KT CAVOK 17/11 Q1023 EDJA 181920Z 07007KT CAVOK 17/11 Q1023 EDJA 181850Z 07008KT CAVOK 18/11 Q1023 EDJA 181820Z 07008KT CAVOK 19/12 Q1023 EDJA 181750Z 07011KT CAVOK 20/12 Q1023 EDJA 181720Z 07010KT CAVOK 21/13 Q1023 EDJA 181650Z 06011KT CAVOK 22/13 Q1023 EDJA 181620Z 06011KT CAVOK 22/13 Q1023 EDJA 181550Z 06011KT CAVOK 23/12 Q1023 EDJA 181520Z 07009KT CAVOK 23/13 Q1023 EDJA 181450Z 06012KT CAVOK 23/12 Q1023 EDJA 181420Z 07010KT 040V120 CAVOK 23/12 Q1023 EDJA 181350Z 06010KT CAVOK 24/12 Q1023 EDJA 181320Z 08008KT 040V120 CAVOK 24/11 Q1023

METAR Messwerte "MEMMINGEN ALLGAU" EDJA

Zurück zur Übersicht

Ortsname
Ländercode / m ü. NN
Zeit Temperatur Taupunkt Rel.
Luftfeuchte
Luftdruck:
Altimeter
NN
Station
Wind in Beaufort
(Knoten)
Sichtweite
(Meter)
Wolken
(Meter über Grund)
Wettererscheinung
MEMMINGEN ALLGAU
DE 625
Fr 20.05. 02:50161277 %1025
1025
951
SSO 2 (5)>= 10000Leicht bewölkt (3700) 
MEMMINGEN ALLGAU
DE 625
Fr 20.05. 02:20161277 %1025
1025
951
SSO 2 (3)
OSO - S
>= 10000Leicht bewölkt (3700) 
MEMMINGEN ALLGAU
DE 625
Fr 20.05. 01:50151282 %1025
1025
951
OSO 2 (5)>= 10000Leicht bewölkt (2400) 
MEMMINGEN ALLGAU
DE 625
Fr 20.05. 01:20161277 %1025
1025
951
O 2 (4)
NO - OSO
>= 10000Stark bewölkt (4000)
Stark bewölkt (2300)
 
MEMMINGEN ALLGAU
DE 625
Fr 20.05. 00:50161382 %1025
1025
951
NO 2 (3)
N - O
>= 10000Stark bewölkt (4000)
Leicht bewölkt (3000)
 
MEMMINGEN ALLGAU
DE 625
Fr 20.05. 00:20171377 %1025
1025
951
SSW 2 (5)>= 10000Stark bewölkt (3700)
Wolkig (2900)
 
MEMMINGEN ALLGAU
DE 625
Do 19.05. 23:50171377 %1025
1025
951
SSW 3 (7)>= 10000Bedeckt (3700)
Stark bewölkt (2900)
 
MEMMINGEN ALLGAU
DE 625
Do 19.05. 23:20171272 %1025
1025
951
SSW 3 (8)>= 10000Stark bewölkt (2600) 
MEMMINGEN ALLGAU
DE 625
Do 19.05. 22:50171272 %1024
1024
951
SSW 3 (9)>= 10000Wolkig (4000)
Leicht bewölkt (2700)
 
MEMMINGEN ALLGAU
DE 625
Do 19.05. 22:20171272 %1024
1024
951
SSW 3 (7)>= 10000Nicht signifikant 
MEMMINGEN ALLGAU
DE 625
Do 19.05. 21:50181268 %1024
1023
951
S 3 (7)>= 10000Nicht signifikant 
MEMMINGEN ALLGAU
DE 625
Do 19.05. 21:20181268 %1024
1023
951
SSW 2 (6)>= 10000Nicht signifikant 
MEMMINGEN ALLGAU
DE 625
Do 19.05. 20:50191264 %1023
1022
950
SW 2 (6)>= 10000Nicht signifikant 
MEMMINGEN ALLGAU
DE 625
Do 19.05. 20:20201260 %1023
1022
950
S 3 (7)>= 10000Nicht signifikant 
MEMMINGEN ALLGAU
DE 625
Do 19.05. 19:50211153 %1023
1022
950
SW 3 (9)>= 10000Nicht signifikant 
MEMMINGEN ALLGAU
DE 625
Do 19.05. 19:20221150 %1023
1021
950
SW 4 (12)>= 10000Nicht signifikant 
MEMMINGEN ALLGAU
DE 625
Do 19.05. 18:50241350 %1022
1020
949
SW 4 (15)>= 10000Nicht signifikant 
MEMMINGEN ALLGAU
DE 625
Do 19.05. 18:20261345 %1022
1019
949
WSW 4 (12)>= 10000Nicht signifikant 
MEMMINGEN ALLGAU
DE 625
Do 19.05. 17:50261242 %1022
1019
949
W 4 (12)>= 10000Nicht signifikant 
MEMMINGEN ALLGAU
DE 625
Do 19.05. 17:20271342 %1022
1019
949
W 4 (13)>= 10000Nicht signifikant 
MEMMINGEN ALLGAU
DE 625
Do 19.05. 16:50271137 %1022
1019
949
WSW 4 (11)
SW - WNW
>= 10000Nicht signifikant 
MEMMINGEN ALLGAU
DE 625
Do 19.05. 16:20271342 %1022
1019
949
W 3 (10)>= 10000Nicht signifikant 
MEMMINGEN ALLGAU
DE 625
Do 19.05. 15:50271342 %1022
1019
949
WSW 3 (8)
SW - WNW
>= 10000Nicht signifikant 
MEMMINGEN ALLGAU
DE 625
Do 19.05. 15:20271342 %1023
1020
950
W 3 (8)
SSW - WNW
>= 10000Nicht signifikant 
MEMMINGEN ALLGAU
DE 625
Do 19.05. 14:50271342 %1023
1020
950
WSW 3 (9)>= 10000Nicht signifikant 
MEMMINGEN ALLGAU
DE 625
Do 19.05. 14:20271342 %1023
1020
950
W 4 (11)
WSW - WNW
>= 10000Nicht signifikant 
MEMMINGEN ALLGAU
DE 625
Do 19.05. 13:50261242 %1023
1020
950
W 3 (10)
SW - NW
>= 10000Nicht signifikant 
MEMMINGEN ALLGAU
DE 625
Do 19.05. 13:20261448 %1023
1020
950
WSW 4 (11)
SW - NW
>= 10000Nicht signifikant 
MEMMINGEN ALLGAU
DE 625
Do 19.05. 12:50261345 %1023
1020
950
W 4 (14)
WSW - WNW
>= 10000Nicht signifikant 
MEMMINGEN ALLGAU
DE 625
Do 19.05. 12:20251554 %1023
1021
950
SW 3 (10)
SSW - W
>= 10000Nicht signifikant 
MEMMINGEN ALLGAU
DE 625
Do 19.05. 11:50251554 %1023
1021
950
SW 4 (12)>= 10000Nicht signifikant 
MEMMINGEN ALLGAU
DE 625
Do 19.05. 11:20241454 %1024
1022
951
SW 3 (9)
SSW - W
>= 10000Nicht signifikant 
MEMMINGEN ALLGAU
DE 625
Do 19.05. 10:50231457 %1024
1022
951
SW 4 (11)>= 10000Nicht signifikant 
MEMMINGEN ALLGAU
DE 625
Do 19.05. 10:20221460 %1024
1022
951
SW 3 (10)>= 10000Nicht signifikant 
MEMMINGEN ALLGAU
DE 625
Do 19.05. 09:50211464 %1024
1023
951
SW 3 (7)>= 10000Nicht signifikant 
MEMMINGEN ALLGAU
DE 625
Do 19.05. 09:20201364 %1023
1022
950
SW 3 (7)>= 10000Nicht signifikant 
MEMMINGEN ALLGAU
DE 625
Do 19.05. 08:50181373 %1023
1022
950
SW 2 (5)>= 10000Nicht signifikant 
MEMMINGEN ALLGAU
DE 625
Do 19.05. 08:20161277 %1023
1023
950
SW 2 (4)>= 10000Nicht signifikant 
MEMMINGEN ALLGAU
DE 625
Do 19.05. 07:50141288 %1023
1023
950
SSW 1 (2)>= 10000Nicht signifikant 
MEMMINGEN ALLGAU
DE 625
Do 19.05. 07:20131082 %1023
1024
950
Uml 1 (1)>= 10000Nicht signifikant 
MEMMINGEN ALLGAU
DE 625
Do 19.05. 06:5010993 %1022
1023
949
S 1 (2)>= 10000Nicht signifikant 
MEMMINGEN ALLGAU
DE 625
Do 19.05. 06:2010887 %1022
1023
949
Windstill>= 10000Nicht signifikant 
MEMMINGEN ALLGAU
DE 625
Do 19.05. 05:509893 %1022
1024
949
Windstill>= 10000Nicht signifikant 
MEMMINGEN ALLGAU
DE 625
Do 19.05. 05:209893 %1022
1024
949
Uml 1 (2)>= 10000Leicht bewölkt (6700) 
MEMMINGEN ALLGAU
DE 625
Do 19.05. 04:509893 %1022
1024
949
Uml 1 (2)>= 10000  
MEMMINGEN ALLGAU
DE 625
Do 19.05. 04:209893 %1022
1024
949
Uml 1 (1)>= 10000  
MEMMINGEN ALLGAU
DE 625
Do 19.05. 03:509893 %1022
1024
949
Uml 1 (2)>= 10000  
MEMMINGEN ALLGAU
DE 625
Do 19.05. 03:2010993 %1022
1023
949
ONO 2 (4)>= 10000  
MEMMINGEN ALLGAU
DE 625
Do 19.05. 02:5011882 %1022
1023
949
NNO 2 (4)>= 10000  
MEMMINGEN ALLGAU
DE 625
Do 19.05. 02:2012982 %1022
1023
949
NNO 2 (4)>= 10000Leicht bewölkt (4900) 
MEMMINGEN ALLGAU
DE 625
Do 19.05. 01:5012982 %1022
1023
949
Uml 1 (2)>= 10000Leicht bewölkt (4900) 
MEMMINGEN ALLGAU
DE 625
Do 19.05. 01:2012982 %1023
1024
950
O 2 (6)>= 10000Leicht bewölkt (4900) 
MEMMINGEN ALLGAU
DE 625
Do 19.05. 00:5013977 %1023
1024
950
O 2 (6)>= 10000Leicht bewölkt (4600) 
MEMMINGEN ALLGAU
DE 625
Do 19.05. 00:2014972 %1023
1023
950
O 2 (4)
NO - OSO
>= 10000Leicht bewölkt (4900) 
MEMMINGEN ALLGAU
DE 625
Mi 18.05. 23:5016963 %1023
1023
950
O 3 (8)>= 10000Wolkig (4900) 
MEMMINGEN ALLGAU
DE 625
Mi 18.05. 23:20151072 %1023
1023
950
O 3 (8)>= 10000Leicht bewölkt (4900) 
MEMMINGEN ALLGAU
DE 625
Mi 18.05. 22:50161068 %1023
1023
950
O 3 (7)>= 10000Leicht bewölkt (4900) 
MEMMINGEN ALLGAU
DE 625
Mi 18.05. 22:20161068 %1023
1023
950
O 3 (7)>= 10000Leicht bewölkt (6700) 
MEMMINGEN ALLGAU
DE 625
Mi 18.05. 21:50171168 %1023
1023
950
O 3 (8)>= 10000Nicht signifikant 
MEMMINGEN ALLGAU
DE 625
Mi 18.05. 21:20171168 %1023
1023
950
ONO 3 (7)>= 10000Nicht signifikant 
MEMMINGEN ALLGAU
DE 625
Mi 18.05. 20:50181164 %1023
1022
950
ONO 3 (8)>= 10000Nicht signifikant 
MEMMINGEN ALLGAU
DE 625
Mi 18.05. 20:20191264 %1023
1022
950
ONO 3 (8)>= 10000Nicht signifikant 
MEMMINGEN ALLGAU
DE 625
Mi 18.05. 19:50201260 %1023
1022
950
ONO 4 (11)>= 10000Nicht signifikant 
MEMMINGEN ALLGAU
DE 625
Mi 18.05. 19:20211360 %1023
1022
950
ONO 3 (10)>= 10000Nicht signifikant 
MEMMINGEN ALLGAU
DE 625
Mi 18.05. 18:50221357 %1023
1021
950
ONO 4 (11)>= 10000Nicht signifikant 
MEMMINGEN ALLGAU
DE 625
Mi 18.05. 18:20221357 %1023
1021
950
ONO 4 (11)>= 10000Nicht signifikant 
MEMMINGEN ALLGAU
DE 625
Mi 18.05. 17:50231250 %1023
1021
950
ONO 4 (11)>= 10000Nicht signifikant 
MEMMINGEN ALLGAU
DE 625
Mi 18.05. 17:20231353 %1023
1021
950
ONO 3 (9)>= 10000Nicht signifikant 
MEMMINGEN ALLGAU
DE 625
Mi 18.05. 16:50231250 %1023
1021
950
ONO 4 (12)>= 10000Nicht signifikant 
MEMMINGEN ALLGAU
DE 625
Mi 18.05. 16:20231250 %1023
1021
950
ONO 3 (10)
NO - OSO
>= 10000Nicht signifikant 
MEMMINGEN ALLGAU
DE 625
Mi 18.05. 15:50241247 %1023
1021
950
ONO 3 (10)>= 10000Nicht signifikant 
MEMMINGEN ALLGAU
DE 625
Mi 18.05. 15:20241144 %1023
1021
950
O 3 (8)
NO - OSO
>= 10000Nicht signifikant 

Altimeter: Einstellung am Altimeter (Höhenmesser), die Höhe 0 muss auf diesen Luftdruckwert zeigen, damit das Gerät die Stationshöhe richtig anzeigt.

NN: Luftdruck reduziert auf "Normal Null", auf Meereshöhe, dieser von der Temperatur abhängige Wert wird bisweilen unkorrekt einfach als "Luftdruck" bezeichnet. Eigentlich nur eine fiktive Größe, die es erlaubt, Stationen auf unterschiedlichen Höhen miteinander zu vergleichen.

Station: Realer Luftdruck an der Station.